sensor_id;sensor_type;location;lat;lon;timestamp;P1;durP1;ratioP1;P2;durP2;ratioP2
71969;SDS011;59838;52.152;5.436;2023-09-30T00:02:21;5.63;;;1.40;;
71969;SDS011;59838;52.152;5.436;2023-09-30T00:04:48;11.23;;;1.58;;
71969;SDS011;59838;52.152;5.436;2023-09-30T00:07:14;7.35;;;1.70;;
71969;SDS011;59838;52.152;5.436;2023-09-30T00:09:41;4.47;;;1.38;;
71969;SDS011;59838;52.152;5.436;2023-09-30T00:12:07;8.80;;;1.80;;
71969;SDS011;59838;52.152;5.436;2023-09-30T00:14:34;6.50;;;1.95;;
71969;SDS011;59838;52.152;5.436;2023-09-30T00:17:02;8.20;;;1.53;;
71969;SDS011;59838;52.152;5.436;2023-09-30T00:19:28;6.57;;;2.00;;
71969;SDS011;59838;52.152;5.436;2023-09-30T00:21:55;5.63;;;1.70;;
71969;SDS011;59838;52.152;5.436;2023-09-30T00:24:21;4.57;;;1.70;;
71969;SDS011;59838;52.152;5.436;2023-09-30T00:26:48;7.50;;;1.67;;
71969;SDS011;59838;52.152;5.436;2023-09-30T00:29:16;6.65;;;1.77;;
71969;SDS011;59838;52.152;5.436;2023-09-30T00:31:44;6.97;;;1.50;;
71969;SDS011;59838;52.152;5.436;2023-09-30T00:34:10;4.80;;;2.38;;
71969;SDS011;59838;52.152;5.436;2023-09-30T00:36:36;6.03;;;2.03;;
71969;SDS011;59838;52.152;5.436;2023-09-30T00:39:03;6.85;;;1.60;;
71969;SDS011;59838;52.152;5.436;2023-09-30T00:41:30;22.85;;;2.78;;
71969;SDS011;59838;52.152;5.436;2023-09-30T00:43:56;8.38;;;2.08;;
71969;SDS011;59838;52.152;5.436;2023-09-30T00:46:28;5.22;;;2.17;;
71969;SDS011;59838;52.152;5.436;2023-09-30T00:48:57;6.53;;;2.15;;
71969;SDS011;59838;52.152;5.436;2023-09-30T00:51:25;9.53;;;2.50;;
71969;SDS011;59838;52.152;5.436;2023-09-30T00:53:53;5.53;;;2.40;;
71969;SDS011;59838;52.152;5.436;2023-09-30T00:56:24;8.73;;;2.58;;
71969;SDS011;59838;52.152;5.436;2023-09-30T00:58:52;4.15;;;1.95;;
71969;SDS011;59838;52.152;5.436;2023-09-30T01:01:19;8.52;;;1.95;;
71969;SDS011;59838;52.152;5.436;2023-09-30T01:03:46;7.22;;;1.88;;
71969;SDS011;59838;52.152;5.436;2023-09-30T01:06:13;7.87;;;2.10;;
71969;SDS011;59838;52.152;5.436;2023-09-30T01:08:40;7.05;;;2.40;;
71969;SDS011;59838;52.152;5.436;2023-09-30T01:11:07;6.95;;;1.67;;
71969;SDS011;59838;52.152;5.436;2023-09-30T01:13:35;8.88;;;2.72;;
71969;SDS011;59838;52.152;5.436;2023-09-30T01:16:03;4.50;;;2.17;;
71969;SDS011;59838;52.152;5.436;2023-09-30T01:18:31;7.28;;;2.42;;
71969;SDS011;59838;52.152;5.436;2023-09-30T01:21:02;6.85;;;2.50;;
71969;SDS011;59838;52.152;5.436;2023-09-30T01:23:31;4.57;;;2.20;;
71969;SDS011;59838;52.152;5.436;2023-09-30T01:26:07;4.85;;;2.05;;
71969;SDS011;59838;52.152;5.436;2023-09-30T01:28:41;10.55;;;2.78;;
71969;SDS011;59838;52.152;5.436;2023-09-30T01:31:08;4.72;;;2.15;;
71969;SDS011;59838;52.152;5.436;2023-09-30T01:33:35;7.53;;;2.55;;
71969;SDS011;59838;52.152;5.436;2023-09-30T01:36:01;6.97;;;3.22;;
71969;SDS011;59838;52.152;5.436;2023-09-30T01:38:28;6.25;;;2.67;;
71969;SDS011;59838;52.152;5.436;2023-09-30T01:40:55;4.67;;;2.07;;
71969;SDS011;59838;52.152;5.436;2023-09-30T01:43:25;7.85;;;3.63;;
71969;SDS011;59838;52.152;5.436;2023-09-30T01:45:52;4.60;;;1.83;;
71969;SDS011;59838;52.152;5.436;2023-09-30T01:48:19;6.53;;;2.33;;
71969;SDS011;59838;52.152;5.436;2023-09-30T01:50:46;8.15;;;3.00;;
71969;SDS011;59838;52.152;5.436;2023-09-30T01:53:12;4.95;;;1.88;;
71969;SDS011;59838;52.152;5.436;2023-09-30T01:55:39;5.78;;;1.77;;
71969;SDS011;59838;52.152;5.436;2023-09-30T01:58:05;5.38;;;2.13;;
71969;SDS011;59838;52.152;5.436;2023-09-30T02:00:31;4.22;;;2.10;;
71969;SDS011;59838;52.152;5.436;2023-09-30T02:02:58;7.20;;;2.33;;
71969;SDS011;59838;52.152;5.436;2023-09-30T02:05:25;6.28;;;2.17;;
71969;SDS011;59838;52.152;5.436;2023-09-30T02:07:51;5.85;;;1.95;;
71969;SDS011;59838;52.152;5.436;2023-09-30T02:10:18;5.45;;;1.90;;
71969;SDS011;59838;52.152;5.436;2023-09-30T02:12:46;5.20;;;2.33;;
71969;SDS011;59838;52.152;5.436;2023-09-30T02:15:13;6.45;;;2.35;;
71969;SDS011;59838;52.152;5.436;2023-09-30T02:17:40;4.93;;;2.40;;
71969;SDS011;59838;52.152;5.436;2023-09-30T02:20:12;9.52;;;4.25;;
71969;SDS011;59838;52.152;5.436;2023-09-30T02:22:42;8.23;;;3.22;;
71969;SDS011;59838;52.152;5.436;2023-09-30T02:25:10;7.57;;;3.20;;
71969;SDS011;59838;52.152;5.436;2023-09-30T02:27:41;7.18;;;2.25;;
71969;SDS011;59838;52.152;5.436;2023-09-30T02:30:09;7.57;;;2.97;;
71969;SDS011;59838;52.152;5.436;2023-09-30T02:32:40;8.57;;;3.60;;
71969;SDS011;59838;52.152;5.436;2023-09-30T02:35:08;6.18;;;2.60;;
71969;SDS011;59838;52.152;5.436;2023-09-30T02:37:38;6.90;;;2.65;;
71969;SDS011;59838;52.152;5.436;2023-09-30T02:40:05;8.18;;;2.92;;
71969;SDS011;59838;52.152;5.436;2023-09-30T02:42:36;4.67;;;2.43;;
71969;SDS011;59838;52.152;5.436;2023-09-30T02:45:06;5.95;;;2.35;;
71969;SDS011;59838;52.152;5.436;2023-09-30T02:47:37;8.35;;;2.85;;
71969;SDS011;59838;52.152;5.436;2023-09-30T02:50:05;5.47;;;2.80;;
71969;SDS011;59838;52.152;5.436;2023-09-30T02:52:34;7.32;;;3.05;;
71969;SDS011;59838;52.152;5.436;2023-09-30T02:55:00;5.70;;;2.70;;
71969;SDS011;59838;52.152;5.436;2023-09-30T02:57:28;6.45;;;2.92;;
71969;SDS011;59838;52.152;5.436;2023-09-30T02:59:55;7.15;;;3.08;;
71969;SDS011;59838;52.152;5.436;2023-09-30T03:02:22;8.00;;;3.50;;
71969;SDS011;59838;52.152;5.436;2023-09-30T03:04:50;8.50;;;2.60;;
71969;SDS011;59838;52.152;5.436;2023-09-30T03:07:20;9.73;;;3.03;;
71969;SDS011;59838;52.152;5.436;2023-09-30T03:09:46;6.50;;;3.58;;
71969;SDS011;59838;52.152;5.436;2023-09-30T03:12:13;13.27;;;4.28;;
71969;SDS011;59838;52.152;5.436;2023-09-30T03:14:40;7.45;;;4.05;;
71969;SDS011;59838;52.152;5.436;2023-09-30T03:17:07;7.80;;;3.97;;
71969;SDS011;59838;52.152;5.436;2023-09-30T03:19:38;11.80;;;4.35;;
71969;SDS011;59838;52.152;5.436;2023-09-30T03:22:05;10.55;;;3.90;;
71969;SDS011;59838;52.152;5.436;2023-09-30T03:24:40;8.85;;;4.22;;
71969;SDS011;59838;52.152;5.436;2023-09-30T03:27:07;7.65;;;3.35;;
71969;SDS011;59838;52.152;5.436;2023-09-30T03:29:38;11.85;;;3.97;;
71969;SDS011;59838;52.152;5.436;2023-09-30T03:32:05;8.43;;;3.90;;
71969;SDS011;59838;52.152;5.436;2023-09-30T03:34:32;10.68;;;3.80;;
71969;SDS011;59838;52.152;5.436;2023-09-30T03:37:03;11.80;;;4.00;;
71969;SDS011;59838;52.152;5.436;2023-09-30T03:39:33;7.15;;;3.60;;
71969;SDS011;59838;52.152;5.436;2023-09-30T03:41:59;13.43;;;3.90;;
71969;SDS011;59838;52.152;5.436;2023-09-30T03:44:26;9.02;;;3.42;;
71969;SDS011;59838;52.152;5.436;2023-09-30T03:46:54;10.85;;;4.20;;
71969;SDS011;59838;52.152;5.436;2023-09-30T03:49:20;7.47;;;4.03;;
71969;SDS011;59838;52.152;5.436;2023-09-30T03:51:48;9.52;;;4.20;;
71969;SDS011;59838;52.152;5.436;2023-09-30T03:54:17;8.32;;;3.60;;
71969;SDS011;59838;52.152;5.436;2023-09-30T03:56:47;7.13;;;4.05;;
71969;SDS011;59838;52.152;5.436;2023-09-30T03:59:14;8.32;;;3.70;;
71969;SDS011;59838;52.152;5.436;2023-09-30T04:01:40;9.02;;;4.32;;
71969;SDS011;59838;52.152;5.436;2023-09-30T04:04:08;8.27;;;4.22;;
71969;SDS011;59838;52.152;5.436;2023-09-30T04:06:36;9.02;;;5.03;;
71969;SDS011;59838;52.152;5.436;2023-09-30T04:09:05;7.53;;;4.53;;
71969;SDS011;59838;52.152;5.436;2023-09-30T04:11:38;11.57;;;5.10;;
71969;SDS011;59838;52.152;5.436;2023-09-30T04:14:05;9.23;;;4.60;;
71969;SDS011;59838;52.152;5.436;2023-09-30T04:16:33;14.40;;;4.80;;
71969;SDS011;59838;52.152;5.436;2023-09-30T04:19:01;8.35;;;5.07;;
71969;SDS011;59838;52.152;5.436;2023-09-30T04:21:27;10.07;;;5.30;;
71969;SDS011;59838;52.152;5.436;2023-09-30T04:23:56;12.02;;;5.20;;
71969;SDS011;59838;52.152;5.436;2023-09-30T04:26:24;10.65;;;5.72;;
71969;SDS011;59838;52.152;5.436;2023-09-30T04:28:51;10.55;;;5.13;;
71969;SDS011;59838;52.152;5.436;2023-09-30T04:31:19;11.68;;;5.40;;
71969;SDS011;59838;52.152;5.436;2023-09-30T04:33:48;11.05;;;5.25;;
71969;SDS011;59838;52.152;5.436;2023-09-30T04:36:17;12.18;;;5.40;;
71969;SDS011;59838;52.152;5.436;2023-09-30T04:38:43;9.30;;;5.07;;
71969;SDS011;59838;52.152;5.436;2023-09-30T04:41:10;15.68;;;6.32;;
71969;SDS011;59838;52.152;5.436;2023-09-30T04:43:36;12.07;;;5.72;;
71969;SDS011;59838;52.152;5.436;2023-09-30T04:46:06;9.43;;;5.75;;
71969;SDS011;59838;52.152;5.436;2023-09-30T04:48:34;11.57;;;5.68;;
71969;SDS011;59838;52.152;5.436;2023-09-30T04:51:00;11.73;;;5.90;;
71969;SDS011;59838;52.152;5.436;2023-09-30T04:53:30;14.80;;;6.30;;
71969;SDS011;59838;52.152;5.436;2023-09-30T04:56:00;10.90;;;6.07;;
71969;SDS011;59838;52.152;5.436;2023-09-30T04:58:27;12.98;;;6.00;;
71969;SDS011;59838;52.152;5.436;2023-09-30T05:00:55;10.10;;;5.35;;
71969;SDS011;59838;52.152;5.436;2023-09-30T05:03:22;12.95;;;6.00;;
71969;SDS011;59838;52.152;5.436;2023-09-30T05:05:54;11.95;;;6.60;;
71969;SDS011;59838;52.152;5.436;2023-09-30T05:08:24;10.10;;;6.75;;
71969;SDS011;59838;52.152;5.436;2023-09-30T05:10:51;11.25;;;6.90;;
71969;SDS011;59838;52.152;5.436;2023-09-30T05:13:21;14.60;;;6.32;;
71969;SDS011;59838;52.152;5.436;2023-09-30T05:15:49;17.63;;;7.38;;
71969;SDS011;59838;52.152;5.436;2023-09-30T05:18:20;11.60;;;7.10;;
71969;SDS011;59838;52.152;5.436;2023-09-30T05:20:46;14.43;;;7.40;;
71969;SDS011;59838;52.152;5.436;2023-09-30T05:23:13;15.30;;;7.65;;
71969;SDS011;59838;52.152;5.436;2023-09-30T05:25:40;10.25;;;6.57;;
71969;SDS011;59838;52.152;5.436;2023-09-30T05:28:10;17.10;;;7.10;;
71969;SDS011;59838;52.152;5.436;2023-09-30T05:30:38;9.27;;;5.93;;
71969;SDS011;59838;52.152;5.436;2023-09-30T05:33:05;15.73;;;7.90;;
71969;SDS011;59838;52.152;5.436;2023-09-30T05:35:32;10.90;;;6.80;;
71969;SDS011;59838;52.152;5.436;2023-09-30T05:37:59;12.23;;;6.30;;
71969;SDS011;59838;52.152;5.436;2023-09-30T05:40:26;13.43;;;6.70;;
71969;SDS011;59838;52.152;5.436;2023-09-30T05:42:56;13.85;;;7.40;;
71969;SDS011;59838;52.152;5.436;2023-09-30T05:45:26;15.93;;;8.07;;
71969;SDS011;59838;52.152;5.436;2023-09-30T05:47:54;13.52;;;8.35;;
71969;SDS011;59838;52.152;5.436;2023-09-30T05:50:23;13.65;;;7.60;;
71969;SDS011;59838;52.152;5.436;2023-09-30T05:52:52;16.45;;;7.57;;
71969;SDS011;59838;52.152;5.436;2023-09-30T05:55:19;12.13;;;6.53;;
71969;SDS011;59838;52.152;5.436;2023-09-30T05:57:49;12.98;;;6.57;;
71969;SDS011;59838;52.152;5.436;2023-09-30T06:00:16;12.00;;;6.75;;
71969;SDS011;59838;52.152;5.436;2023-09-30T06:02:48;12.52;;;6.75;;
71969;SDS011;59838;52.152;5.436;2023-09-30T06:05:15;19.00;;;7.57;;
71969;SDS011;59838;52.152;5.436;2023-09-30T06:07:42;16.40;;;8.30;;
71969;SDS011;59838;52.152;5.436;2023-09-30T06:10:11;15.73;;;7.70;;
71969;SDS011;59838;52.152;5.436;2023-09-30T06:12:38;19.50;;;9.48;;
71969;SDS011;59838;52.152;5.436;2023-09-30T06:15:05;16.48;;;8.75;;
71969;SDS011;59838;52.152;5.436;2023-09-30T06:17:32;17.83;;;8.15;;
71969;SDS011;59838;52.152;5.436;2023-09-30T06:19:59;17.40;;;8.23;;
71969;SDS011;59838;52.152;5.436;2023-09-30T06:22:34;15.70;;;8.45;;
71969;SDS011;59838;52.152;5.436;2023-09-30T06:25:01;24.73;;;9.32;;
71969;SDS011;59838;52.152;5.436;2023-09-30T06:27:31;17.55;;;9.45;;
71969;SDS011;59838;52.152;5.436;2023-09-30T06:29:57;18.75;;;9.65;;
71969;SDS011;59838;52.152;5.436;2023-09-30T06:32:24;12.40;;;8.15;;
71969;SDS011;59838;52.152;5.436;2023-09-30T06:34:51;15.00;;;8.55;;
71969;SDS011;59838;52.152;5.436;2023-09-30T06:37:18;16.88;;;9.50;;
71969;SDS011;59838;52.152;5.436;2023-09-30T06:39:44;16.20;;;8.90;;
71969;SDS011;59838;52.152;5.436;2023-09-30T06:42:11;14.77;;;8.75;;
71969;SDS011;59838;52.152;5.436;2023-09-30T06:44:37;15.85;;;9.45;;
71969;SDS011;59838;52.152;5.436;2023-09-30T06:47:04;15.63;;;9.00;;
71969;SDS011;59838;52.152;5.436;2023-09-30T06:49:33;17.88;;;8.25;;
71969;SDS011;59838;52.152;5.436;2023-09-30T06:52:00;15.88;;;8.43;;
71969;SDS011;59838;52.152;5.436;2023-09-30T06:54:28;16.83;;;8.52;;
71969;SDS011;59838;52.152;5.436;2023-09-30T06:56:55;15.32;;;8.60;;
71969;SDS011;59838;52.152;5.436;2023-09-30T06:59:21;13.85;;;8.23;;
71969;SDS011;59838;52.152;5.436;2023-09-30T07:01:48;16.92;;;8.57;;
71969;SDS011;59838;52.152;5.436;2023-09-30T07:04:14;15.00;;;7.95;;
71969;SDS011;59838;52.152;5.436;2023-09-30T07:06:41;14.88;;;8.55;;
71969;SDS011;59838;52.152;5.436;2023-09-30T07:09:08;11.95;;;8.25;;
71969;SDS011;59838;52.152;5.436;2023-09-30T07:11:36;12.25;;;8.65;;
71969;SDS011;59838;52.152;5.436;2023-09-30T07:14:03;14.52;;;8.43;;
71969;SDS011;59838;52.152;5.436;2023-09-30T07:16:30;12.70;;;7.65;;
71969;SDS011;59838;52.152;5.436;2023-09-30T07:18:56;14.32;;;7.47;;
71969;SDS011;59838;52.152;5.436;2023-09-30T07:21:23;13.75;;;7.50;;
71969;SDS011;59838;52.152;5.436;2023-09-30T07:23:50;13.85;;;8.75;;
71969;SDS011;59838;52.152;5.436;2023-09-30T07:26:17;13.70;;;8.13;;
71969;SDS011;59838;52.152;5.436;2023-09-30T07:28:43;13.73;;;8.07;;
71969;SDS011;59838;52.152;5.436;2023-09-30T07:31:10;13.57;;;8.68;;
71969;SDS011;59838;52.152;5.436;2023-09-30T07:33:36;13.02;;;7.75;;
71969;SDS011;59838;52.152;5.436;2023-09-30T07:36:03;13.52;;;8.38;;
71969;SDS011;59838;52.152;5.436;2023-09-30T07:38:30;9.98;;;7.43;;
71969;SDS011;59838;52.152;5.436;2023-09-30T07:40:56;13.63;;;7.78;;
71969;SDS011;59838;52.152;5.436;2023-09-30T07:43:23;12.30;;;7.40;;
71969;SDS011;59838;52.152;5.436;2023-09-30T07:45:49;13.80;;;8.10;;
71969;SDS011;59838;52.152;5.436;2023-09-30T07:48:16;11.43;;;7.97;;
71969;SDS011;59838;52.152;5.436;2023-09-30T07:50:43;14.48;;;8.02;;
71969;SDS011;59838;52.152;5.436;2023-09-30T07:53:09;17.23;;;7.60;;
71969;SDS011;59838;52.152;5.436;2023-09-30T07:55:38;12.05;;;7.68;;
71969;SDS011;59838;52.152;5.436;2023-09-30T07:58:05;11.60;;;7.18;;
71969;SDS011;59838;52.152;5.436;2023-09-30T08:00:34;13.27;;;7.93;;
71969;SDS011;59838;52.152;5.436;2023-09-30T08:03:01;13.02;;;7.45;;
71969;SDS011;59838;52.152;5.436;2023-09-30T08:05:27;12.18;;;7.32;;
71969;SDS011;59838;52.152;5.436;2023-09-30T08:07:54;11.60;;;7.82;;
71969;SDS011;59838;52.152;5.436;2023-09-30T08:10:20;13.07;;;6.22;;
71969;SDS011;59838;52.152;5.436;2023-09-30T08:12:47;11.23;;;7.25;;
71969;SDS011;59838;52.152;5.436;2023-09-30T08:15:15;13.87;;;6.77;;
71969;SDS011;59838;52.152;5.436;2023-09-30T08:17:42;11.60;;;6.70;;
71969;SDS011;59838;52.152;5.436;2023-09-30T08:20:09;11.15;;;7.25;;
71969;SDS011;59838;52.152;5.436;2023-09-30T08:22:36;13.25;;;6.90;;
71969;SDS011;59838;52.152;5.436;2023-09-30T08:25:03;12.45;;;6.30;;
71969;SDS011;59838;52.152;5.436;2023-09-30T08:27:32;12.63;;;6.07;;
71969;SDS011;59838;52.152;5.436;2023-09-30T08:29:58;13.88;;;6.93;;
71969;SDS011;59838;52.152;5.436;2023-09-30T08:32:25;12.25;;;6.90;;
71969;SDS011;59838;52.152;5.436;2023-09-30T08:34:52;11.98;;;6.57;;
71969;SDS011;59838;52.152;5.436;2023-09-30T08:37:20;11.73;;;7.40;;
71969;SDS011;59838;52.152;5.436;2023-09-30T08:39:47;16.48;;;6.55;;
71969;SDS011;59838;52.152;5.436;2023-09-30T08:42:13;10.60;;;5.88;;
71969;SDS011;59838;52.152;5.436;2023-09-30T08:44:40;12.88;;;6.32;;
71969;SDS011;59838;52.152;5.436;2023-09-30T08:47:08;11.10;;;6.05;;
71969;SDS011;59838;52.152;5.436;2023-09-30T08:49:37;15.77;;;6.07;;
71969;SDS011;59838;52.152;5.436;2023-09-30T08:52:09;10.50;;;5.38;;
71969;SDS011;59838;52.152;5.436;2023-09-30T08:54:36;11.88;;;5.63;;
71969;SDS011;59838;52.152;5.436;2023-09-30T08:57:04;9.63;;;5.75;;
71969;SDS011;59838;52.152;5.436;2023-09-30T08:59:31;11.32;;;5.50;;
71969;SDS011;59838;52.152;5.436;2023-09-30T09:02:01;9.63;;;5.93;;
71969;SDS011;59838;52.152;5.436;2023-09-30T09:04:34;8.87;;;4.90;;
71969;SDS011;59838;52.152;5.436;2023-09-30T09:07:01;10.13;;;5.35;;
71969;SDS011;59838;52.152;5.436;2023-09-30T09:09:28;9.73;;;4.78;;
71969;SDS011;59838;52.152;5.436;2023-09-30T09:11:54;10.35;;;4.88;;
71969;SDS011;59838;52.152;5.436;2023-09-30T09:14:36;10.05;;;4.28;;
71969;SDS011;59838;52.152;5.436;2023-09-30T09:17:06;11.43;;;4.95;;
71969;SDS011;59838;52.152;5.436;2023-09-30T09:19:34;10.48;;;4.50;;
71969;SDS011;59838;52.152;5.436;2023-09-30T09:22:01;11.10;;;5.45;;
71969;SDS011;59838;52.152;5.436;2023-09-30T09:24:32;13.10;;;4.95;;
71969;SDS011;59838;52.152;5.436;2023-09-30T09:27:08;13.30;;;4.50;;
71969;SDS011;59838;52.152;5.436;2023-09-30T09:29:36;8.52;;;4.60;;
71969;SDS011;59838;52.152;5.436;2023-09-30T09:32:21;9.13;;;4.30;;
71969;SDS011;59838;52.152;5.436;2023-09-30T09:35:00;9.43;;;4.78;;
71969;SDS011;59838;52.152;5.436;2023-09-30T09:37:28;7.63;;;4.05;;
71969;SDS011;59838;52.152;5.436;2023-09-30T09:39:58;7.90;;;3.33;;
71969;SDS011;59838;52.152;5.436;2023-09-30T09:44:57;4.82;;;2.28;;
71969;SDS011;59838;52.152;5.436;2023-09-30T09:47:26;5.65;;;2.13;;
71969;SDS011;59838;52.152;5.436;2023-09-30T09:49:53;6.53;;;2.05;;
71969;SDS011;59838;52.152;5.436;2023-09-30T09:52:20;9.35;;;1.90;;
71969;SDS011;59838;52.152;5.436;2023-09-30T09:54:48;7.18;;;2.80;;
71969;SDS011;59838;52.152;5.436;2023-09-30T09:57:17;8.55;;;2.35;;
71969;SDS011;59838;52.152;5.436;2023-09-30T09:59:45;7.90;;;2.72;;
71969;SDS011;59838;52.152;5.436;2023-09-30T10:02:16;4.55;;;2.03;;
71969;SDS011;59838;52.152;5.436;2023-09-30T10:04:44;7.95;;;2.45;;
71969;SDS011;59838;52.152;5.436;2023-09-30T10:09:49;4.10;;;1.55;;
71969;SDS011;59838;52.152;5.436;2023-09-30T10:12:18;6.35;;;2.22;;
71969;SDS011;59838;52.152;5.436;2023-09-30T10:14:48;6.93;;;2.20;;
71969;SDS011;59838;52.152;5.436;2023-09-30T10:17:14;6.50;;;2.03;;
71969;SDS011;59838;52.152;5.436;2023-09-30T10:20:03;7.63;;;2.25;;
71969;SDS011;59838;52.152;5.436;2023-09-30T10:22:32;8.20;;;1.83;;
71969;SDS011;59838;52.152;5.436;2023-09-30T10:25:00;8.25;;;1.48;;
71969;SDS011;59838;52.152;5.436;2023-09-30T10:27:28;3.83;;;0.95;;
71969;SDS011;59838;52.152;5.436;2023-09-30T10:35:21;5.72;;;1.30;;
71969;SDS011;59838;52.152;5.436;2023-09-30T10:40:57;8.55;;;1.38;;
71969;SDS011;59838;52.152;5.436;2023-09-30T10:43:33;5.68;;;1.83;;
71969;SDS011;59838;52.152;5.436;2023-09-30T10:46:29;7.68;;;1.83;;
71969;SDS011;59838;52.152;5.436;2023-09-30T10:48:56;4.32;;;1.52;;
71969;SDS011;59838;52.152;5.436;2023-09-30T10:51:24;3.92;;;1.75;;
71969;SDS011;59838;52.152;5.436;2023-09-30T10:53:51;5.57;;;1.40;;
71969;SDS011;59838;52.152;5.436;2023-09-30T10:56:20;6.45;;;2.05;;
71969;SDS011;59838;52.152;5.436;2023-09-30T11:01:17;7.05;;;2.08;;
71969;SDS011;59838;52.152;5.436;2023-09-30T11:03:46;7.65;;;2.20;;
71969;SDS011;59838;52.152;5.436;2023-09-30T11:06:14;7.38;;;2.33;;
71969;SDS011;59838;52.152;5.436;2023-09-30T11:08:51;5.45;;;1.70;;
71969;SDS011;59838;52.152;5.436;2023-09-30T11:11:31;5.15;;;2.05;;
71969;SDS011;59838;52.152;5.436;2023-09-30T11:14:25;5.28;;;1.63;;
71969;SDS011;59838;52.152;5.436;2023-09-30T11:16:56;6.75;;;1.60;;
71969;SDS011;59838;52.152;5.436;2023-09-30T11:19:25;5.68;;;1.67;;
71969;SDS011;59838;52.152;5.436;2023-09-30T11:22:00;9.45;;;1.38;;
71969;SDS011;59838;52.152;5.436;2023-09-30T11:24:26;3.53;;;1.33;;
71969;SDS011;59838;52.152;5.436;2023-09-30T11:26:55;6.67;;;1.43;;
71969;SDS011;59838;52.152;5.436;2023-09-30T11:29:22;4.25;;;1.23;;
71969;SDS011;59838;52.152;5.436;2023-09-30T11:31:49;8.02;;;2.40;;
71969;SDS011;59838;52.152;5.436;2023-09-30T11:34:17;4.97;;;1.08;;
71969;SDS011;59838;52.152;5.436;2023-09-30T11:36:52;4.45;;;1.40;;
71969;SDS011;59838;52.152;5.436;2023-09-30T11:39:26;2.90;;;0.50;;
71969;SDS011;59838;52.152;5.436;2023-09-30T11:41:54;6.25;;;1.05;;
71969;SDS011;59838;52.152;5.436;2023-09-30T11:44:26;7.07;;;1.10;;
71969;SDS011;59838;52.152;5.436;2023-09-30T11:49:32;5.47;;;1.00;;
71969;SDS011;59838;52.152;5.436;2023-09-30T11:52:25;3.83;;;0.93;;
71969;SDS011;59838;52.152;5.436;2023-09-30T11:54:53;6.32;;;1.45;;
71969;SDS011;59838;52.152;5.436;2023-09-30T11:57:19;7.82;;;1.80;;
71969;SDS011;59838;52.152;5.436;2023-09-30T11:59:46;5.15;;;1.40;;
71969;SDS011;59838;52.152;5.436;2023-09-30T12:02:14;6.28;;;1.45;;
71969;SDS011;59838;52.152;5.436;2023-09-30T12:04:43;6.03;;;1.42;;
71969;SDS011;59838;52.152;5.436;2023-09-30T12:07:11;7.43;;;1.60;;
71969;SDS011;59838;52.152;5.436;2023-09-30T12:09:39;6.50;;;1.85;;
71969;SDS011;59838;52.152;5.436;2023-09-30T12:12:07;6.18;;;1.40;;
71969;SDS011;59838;52.152;5.436;2023-09-30T12:14:39;9.43;;;1.45;;
71969;SDS011;59838;52.152;5.436;2023-09-30T12:17:06;3.85;;;1.25;;
71969;SDS011;59838;52.152;5.436;2023-09-30T12:19:38;5.90;;;0.98;;
71969;SDS011;59838;52.152;5.436;2023-09-30T12:22:04;3.85;;;0.77;;
71969;SDS011;59838;52.152;5.436;2023-09-30T12:24:32;3.55;;;0.93;;
71969;SDS011;59838;52.152;5.436;2023-09-30T12:26:59;3.90;;;1.33;;
71969;SDS011;59838;52.152;5.436;2023-09-30T12:29:25;6.78;;;1.48;;
71969;SDS011;59838;52.152;5.436;2023-09-30T12:31:52;7.88;;;1.67;;
71969;SDS011;59838;52.152;5.436;2023-09-30T12:34:20;10.27;;;1.90;;
71969;SDS011;59838;52.152;5.436;2023-09-30T12:36:50;5.55;;;1.63;;
71969;SDS011;59838;52.152;5.436;2023-09-30T12:39:16;5.13;;;1.13;;
71969;SDS011;59838;52.152;5.436;2023-09-30T12:41:50;5.85;;;1.30;;
71969;SDS011;59838;52.152;5.436;2023-09-30T12:44:16;4.00;;;0.77;;
71969;SDS011;59838;52.152;5.436;2023-09-30T12:46:43;5.53;;;1.42;;
71969;SDS011;59838;52.152;5.436;2023-09-30T12:49:10;3.78;;;1.05;;
71969;SDS011;59838;52.152;5.436;2023-09-30T12:51:36;7.55;;;0.70;;
71969;SDS011;59838;52.152;5.436;2023-09-30T12:54:03;6.55;;;1.23;;
71969;SDS011;59838;52.152;5.436;2023-09-30T12:56:30;4.18;;;1.48;;
71969;SDS011;59838;52.152;5.436;2023-09-30T12:58:58;4.85;;;1.40;;
71969;SDS011;59838;52.152;5.436;2023-09-30T13:01:25;5.50;;;1.00;;
71969;SDS011;59838;52.152;5.436;2023-09-30T13:03:52;8.63;;;1.25;;
71969;SDS011;59838;52.152;5.436;2023-09-30T13:06:19;6.78;;;2.05;;
71969;SDS011;59838;52.152;5.436;2023-09-30T13:08:46;5.57;;;0.90;;
71969;SDS011;59838;52.152;5.436;2023-09-30T13:11:13;6.82;;;1.52;;
71969;SDS011;59838;52.152;5.436;2023-09-30T13:13:40;4.25;;;1.08;;
71969;SDS011;59838;52.152;5.436;2023-09-30T13:16:09;6.07;;;1.42;;
71969;SDS011;59838;52.152;5.436;2023-09-30T13:18:39;5.97;;;1.03;;
71969;SDS011;59838;52.152;5.436;2023-09-30T13:21:06;6.50;;;1.60;;
71969;SDS011;59838;52.152;5.436;2023-09-30T13:23:33;5.78;;;1.17;;
71969;SDS011;59838;52.152;5.436;2023-09-30T13:26:00;7.20;;;1.48;;
71969;SDS011;59838;52.152;5.436;2023-09-30T13:28:27;7.75;;;1.33;;
71969;SDS011;59838;52.152;5.436;2023-09-30T13:30:54;7.47;;;1.17;;
71969;SDS011;59838;52.152;5.436;2023-09-30T13:33:21;4.60;;;1.27;;
71969;SDS011;59838;52.152;5.436;2023-09-30T13:35:47;8.13;;;1.70;;
71969;SDS011;59838;52.152;5.436;2023-09-30T13:38:14;6.15;;;1.52;;
71969;SDS011;59838;52.152;5.436;2023-09-30T13:40:42;3.88;;;1.30;;
71969;SDS011;59838;52.152;5.436;2023-09-30T13:43:09;8.75;;;1.67;;
71969;SDS011;59838;52.152;5.436;2023-09-30T13:45:37;6.40;;;0.82;;
71969;SDS011;59838;52.152;5.436;2023-09-30T13:48:04;5.78;;;1.52;;
71969;SDS011;59838;52.152;5.436;2023-09-30T13:50:31;6.28;;;1.30;;
71969;SDS011;59838;52.152;5.436;2023-09-30T13:52:58;8.00;;;1.77;;
71969;SDS011;59838;52.152;5.436;2023-09-30T13:55:27;5.80;;;1.50;;
71969;SDS011;59838;52.152;5.436;2023-09-30T13:57:54;5.07;;;1.17;;
71969;SDS011;59838;52.152;5.436;2023-09-30T14:00:21;7.30;;;1.35;;
71969;SDS011;59838;52.152;5.436;2023-09-30T14:02:48;5.45;;;1.25;;
71969;SDS011;59838;52.152;5.436;2023-09-30T14:05:16;5.80;;;1.73;;
71969;SDS011;59838;52.152;5.436;2023-09-30T14:07:43;6.72;;;1.40;;
71969;SDS011;59838;52.152;5.436;2023-09-30T14:10:09;10.73;;;1.60;;
71969;SDS011;59838;52.152;5.436;2023-09-30T14:12:37;6.25;;;1.73;;
71969;SDS011;59838;52.152;5.436;2023-09-30T14:15:05;5.03;;;1.10;;
71969;SDS011;59838;52.152;5.436;2023-09-30T14:17:32;10.23;;;1.85;;
71969;SDS011;59838;52.152;5.436;2023-09-30T14:20:01;7.90;;;1.45;;
71969;SDS011;59838;52.152;5.436;2023-09-30T14:22:31;8.35;;;1.42;;
71969;SDS011;59838;52.152;5.436;2023-09-30T14:24:58;5.97;;;2.20;;
71969;SDS011;59838;52.152;5.436;2023-09-30T14:27:24;8.00;;;1.80;;
71969;SDS011;59838;52.152;5.436;2023-09-30T14:29:52;8.30;;;1.70;;
71969;SDS011;59838;52.152;5.436;2023-09-30T14:32:19;4.40;;;1.27;;
71969;SDS011;59838;52.152;5.436;2023-09-30T14:34:45;6.35;;;1.60;;
71969;SDS011;59838;52.152;5.436;2023-09-30T14:37:12;6.93;;;1.95;;
71969;SDS011;59838;52.152;5.436;2023-09-30T14:39:39;6.85;;;1.35;;
71969;SDS011;59838;52.152;5.436;2023-09-30T14:42:06;7.40;;;1.40;;
71969;SDS011;59838;52.152;5.436;2023-09-30T14:44:32;6.40;;;1.87;;
71969;SDS011;59838;52.152;5.436;2023-09-30T14:46:59;6.93;;;2.67;;
71969;SDS011;59838;52.152;5.436;2023-09-30T14:49:26;5.72;;;2.05;;
71969;SDS011;59838;52.152;5.436;2023-09-30T14:51:53;9.25;;;2.10;;
71969;SDS011;59838;52.152;5.436;2023-09-30T14:54:19;6.90;;;1.60;;
71969;SDS011;59838;52.152;5.436;2023-09-30T14:56:46;5.07;;;1.50;;
71969;SDS011;59838;52.152;5.436;2023-09-30T14:59:13;4.50;;;1.63;;
71969;SDS011;59838;52.152;5.436;2023-09-30T15:01:40;8.63;;;1.95;;
71969;SDS011;59838;52.152;5.436;2023-09-30T15:04:07;6.18;;;1.55;;
71969;SDS011;59838;52.152;5.436;2023-09-30T15:06:36;5.95;;;1.35;;
71969;SDS011;59838;52.152;5.436;2023-09-30T15:09:03;9.20;;;1.90;;